createdAt,value
2022-10-15T00:00:40.522Z,12.74
2022-10-15T00:03:07.079Z,12.77
2022-10-15T00:05:36.979Z,12.72
2022-10-15T00:08:03.528Z,12.75
2022-10-15T00:10:30.010Z,12.77
2022-10-15T00:12:56.513Z,12.75
2022-10-15T00:15:23.145Z,12.75
2022-10-15T00:17:49.952Z,12.75
2022-10-15T00:20:16.825Z,12.75
2022-10-15T00:22:43.296Z,12.74
2022-10-15T00:25:10.071Z,12.79
2022-10-15T00:27:37.320Z,12.80
2022-10-15T00:30:05.228Z,12.80
2022-10-15T00:32:31.694Z,12.81
2022-10-15T00:34:58.209Z,12.82
2022-10-15T00:37:24.771Z,12.87
2022-10-15T00:39:51.337Z,12.86
2022-10-15T00:42:17.811Z,12.87
2022-10-15T00:44:54.918Z,12.88
2022-10-15T00:47:24.341Z,12.93
2022-10-15T00:49:56.699Z,12.94
2022-10-15T00:52:32.993Z,12.96
2022-10-15T00:55:11.516Z,12.99
2022-10-15T00:57:38.745Z,12.97
2022-10-15T01:00:09.358Z,12.95
2022-10-15T01:02:35.984Z,12.92
2022-10-15T01:05:03.619Z,12.96
2022-10-15T01:07:30.147Z,12.94
2022-10-15T01:09:56.663Z,12.94
2022-10-15T01:12:48.642Z,12.94
2022-10-15T01:15:30.418Z,12.95
2022-10-15T01:18:06.579Z,12.92
2022-10-15T01:21:03.693Z,12.92
2022-10-15T01:23:53.884Z,12.92
2022-10-15T01:26:52.490Z,12.92
2022-10-15T01:29:18.862Z,12.90
2022-10-15T01:31:50.693Z,12.92
2022-10-15T01:34:37.148Z,12.89
2022-10-15T01:37:09.400Z,12.91
2022-10-15T01:39:51.189Z,12.92
2022-10-15T01:42:48.771Z,12.91
2022-10-15T01:45:20.344Z,12.90
2022-10-15T01:47:51.956Z,12.91
2022-10-15T01:50:20.832Z,12.95
2022-10-15T01:52:49.154Z,12.94
2022-10-15T01:55:16.288Z,12.94
2022-10-15T01:57:44.277Z,12.94
2022-10-15T02:00:11.108Z,12.93
2022-10-15T02:02:37.597Z,12.92
2022-10-15T02:05:06.453Z,12.88
2022-10-15T02:07:46.723Z,12.87
2022-10-15T02:10:26.923Z,12.83
2022-10-15T02:13:29.169Z,12.81
2022-10-15T02:16:20.036Z,12.81
2022-10-15T02:18:59.208Z,12.80
2022-10-15T02:21:32.387Z,12.73
2022-10-15T02:24:22.747Z,12.66
2022-10-15T02:26:53.365Z,12.60
2022-10-15T02:29:22.266Z,12.49
2022-10-15T02:31:49.913Z,12.47
2022-10-15T02:34:19.779Z,12.39
2022-10-15T02:36:46.664Z,12.38
2022-10-15T02:39:17.860Z,12.33
2022-10-15T02:41:44.826Z,12.22
2022-10-15T02:44:11.277Z,12.16
2022-10-15T02:46:37.742Z,12.12
2022-10-15T02:49:04.292Z,12.16
2022-10-15T02:51:34.952Z,12.09
2022-10-15T02:54:02.761Z,12.04
2022-10-15T02:58:57.003Z,11.98
2022-10-15T03:01:23.522Z,11.94
2022-10-15T03:03:50.068Z,11.88
2022-10-15T03:06:16.613Z,11.91
2022-10-15T03:08:44.255Z,11.85
2022-10-15T03:11:11.352Z,11.84
2022-10-15T03:13:39.474Z,11.80
2022-10-15T03:16:06.954Z,11.74
2022-10-15T03:18:36.759Z,11.71
2022-10-15T03:21:06.409Z,11.66
2022-10-15T03:26:00.363Z,11.60
2022-10-15T03:28:26.910Z,11.53
2022-10-15T03:30:53.453Z,11.50
2022-10-15T03:33:21.921Z,11.40
2022-10-15T03:35:51.840Z,11.41
2022-10-15T03:38:18.326Z,11.50
2022-10-15T03:40:45.571Z,11.29
2022-10-15T03:43:12.047Z,11.40
2022-10-15T03:45:38.501Z,11.50
2022-10-15T03:48:05.309Z,11.55
2022-10-15T03:50:31.798Z,11.60
2022-10-15T03:52:58.294Z,11.59
2022-10-15T03:55:24.745Z,11.59
2022-10-15T03:57:51.368Z,11.54
2022-10-15T04:00:17.825Z,11.52
2022-10-15T04:02:44.312Z,11.69
2022-10-15T04:05:10.761Z,11.66
2022-10-15T04:07:37.255Z,11.36
2022-10-15T04:10:04.039Z,11.21
2022-10-15T04:12:30.494Z,11.33
2022-10-15T04:14:56.944Z,11.41
2022-10-15T04:17:23.419Z,11.41
2022-10-15T04:19:49.978Z,11.33
2022-10-15T04:22:16.572Z,11.26
2022-10-15T04:24:43.064Z,11.29
2022-10-15T04:27:09.621Z,11.27
2022-10-15T04:29:36.123Z,11.25
2022-10-15T04:32:02.636Z,11.30
2022-10-15T04:34:29.188Z,11.29
2022-10-15T04:36:55.961Z,11.40
2022-10-15T04:39:22.501Z,11.41
2022-10-15T04:41:48.969Z,11.32
2022-10-15T04:44:15.446Z,11.25
2022-10-15T04:46:41.994Z,11.23
2022-10-15T04:49:08.459Z,11.23
2022-10-15T04:51:34.917Z,11.25
2022-10-15T04:54:01.754Z,11.33
2022-10-15T04:56:28.442Z,11.32
2022-10-15T04:58:54.904Z,11.40
2022-10-15T05:01:21.452Z,11.39
2022-10-15T05:03:48.832Z,11.41
2022-10-15T05:06:20.615Z,11.41
2022-10-15T05:08:47.726Z,11.40
2022-10-15T05:11:19.472Z,11.39
2022-10-15T05:13:46.229Z,11.40
2022-10-15T05:16:24.776Z,11.44
2022-10-15T05:18:57.635Z,11.42
2022-10-15T05:21:24.491Z,11.44
2022-10-15T05:23:51.409Z,11.54
2022-10-15T05:26:20.060Z,11.58
2022-10-15T05:28:46.710Z,11.58
2022-10-15T05:31:18.942Z,11.55
2022-10-15T05:33:46.557Z,11.57
2022-10-15T05:36:17.175Z,11.61
2022-10-15T05:38:44.641Z,11.66
2022-10-15T05:41:11.101Z,11.71
2022-10-15T05:43:40.433Z,11.56
2022-10-15T05:46:08.369Z,11.54
2022-10-15T05:48:35.138Z,11.58
2022-10-15T05:51:06.542Z,11.61
2022-10-15T05:53:33.124Z,11.65
2022-10-15T05:55:59.726Z,11.73
2022-10-15T05:58:27.538Z,11.80
2022-10-15T06:00:54.998Z,11.82
2022-10-15T06:03:21.517Z,11.79
2022-10-15T06:05:48.187Z,11.83
2022-10-15T06:08:14.704Z,11.84
2022-10-15T06:10:41.287Z,11.86
2022-10-15T06:13:07.824Z,11.90
2022-10-15T06:15:34.295Z,11.95
2022-10-15T06:18:01.005Z,11.98
2022-10-15T06:20:27.945Z,12.00
2022-10-15T06:22:58.562Z,11.97
2022-10-15T06:25:25.566Z,11.99
2022-10-15T06:27:52.287Z,12.12
2022-10-15T06:30:19.441Z,12.08
2022-10-15T06:32:53.086Z,12.06
2022-10-15T06:35:20.062Z,12.05
2022-10-15T06:37:46.558Z,12.09
2022-10-15T06:40:13.643Z,12.07
2022-10-15T06:42:40.413Z,12.07
2022-10-15T06:45:07.668Z,12.15
2022-10-15T06:47:34.207Z,12.10
2022-10-15T06:50:00.665Z,12.16
2022-10-15T06:52:27.164Z,12.21
2022-10-15T06:54:53.637Z,12.37
2022-10-15T06:57:20.299Z,12.27
2022-10-15T06:59:46.765Z,12.25
2022-10-15T07:02:17.661Z,12.43
2022-10-15T07:04:44.124Z,12.68
2022-10-15T07:07:10.593Z,12.89
2022-10-15T07:09:37.067Z,13.03
2022-10-15T07:12:04.175Z,12.97
2022-10-15T07:14:30.626Z,12.72
2022-10-15T07:16:58.214Z,12.58
2022-10-15T07:19:25.308Z,12.48
2022-10-15T07:21:51.816Z,12.40
2022-10-15T07:24:18.291Z,12.34
2022-10-15T07:26:44.750Z,12.30
2022-10-15T07:29:11.230Z,12.34
2022-10-15T07:31:37.908Z,12.29
2022-10-15T07:34:04.424Z,12.36
2022-10-15T07:36:30.877Z,12.47
2022-10-15T07:38:57.350Z,12.59
2022-10-15T07:41:23.876Z,12.61
2022-10-15T07:43:51.870Z,12.60
2022-10-15T07:46:18.325Z,12.63
2022-10-15T07:48:44.815Z,12.62
2022-10-15T07:51:11.680Z,12.59
2022-10-15T07:53:38.352Z,12.68
2022-10-15T07:56:07.850Z,12.72
2022-10-15T07:58:35.382Z,12.75
2022-10-15T08:01:03.196Z,12.74
2022-10-15T08:03:30.600Z,12.82
2022-10-15T08:06:00.611Z,12.84
2022-10-15T08:08:27.643Z,12.87
2022-10-15T08:10:54.163Z,12.98
2022-10-15T08:13:21.079Z,13.03
2022-10-15T08:15:47.659Z,12.97
2022-10-15T08:18:14.180Z,12.92
2022-10-15T08:20:40.662Z,12.82
2022-10-15T08:23:14.607Z,12.85
2022-10-15T08:25:41.952Z,12.93
2022-10-15T08:28:10.689Z,12.89
2022-10-15T08:30:37.837Z,12.87
2022-10-15T08:33:04.307Z,12.89
2022-10-15T08:35:35.189Z,12.94
2022-10-15T08:38:02.276Z,12.95
2022-10-15T08:40:29.609Z,13.06
2022-10-15T08:42:56.476Z,13.10
2022-10-15T08:45:27.426Z,13.05
2022-10-15T08:48:11.496Z,13.08
2022-10-15T08:50:43.572Z,13.11
2022-10-15T08:53:14.715Z,13.14
2022-10-15T08:55:43.882Z,13.13
2022-10-15T08:58:20.346Z,13.17
2022-10-15T09:00:52.099Z,13.18
2022-10-15T09:03:33.945Z,13.22
2022-10-15T09:06:36.355Z,13.37
2022-10-15T09:09:19.530Z,13.54
2022-10-15T09:11:51.337Z,13.82
2022-10-15T09:14:21.408Z,13.94
2022-10-15T09:16:51.043Z,13.95
2022-10-15T09:19:25.082Z,13.92
2022-10-15T09:21:52.586Z,13.92
2022-10-15T09:24:24.350Z,13.80
2022-10-15T09:27:00.317Z,13.70
2022-10-15T09:29:39.455Z,13.65
2022-10-15T09:32:15.712Z,13.66
2022-10-15T09:35:00.356Z,13.57
2022-10-15T09:37:48.852Z,13.40
2022-10-15T09:40:46.152Z,13.34
2022-10-15T09:43:13.555Z,13.34
2022-10-15T09:45:40.078Z,13.27
2022-10-15T09:48:16.116Z,13.23
2022-10-15T09:51:01.844Z,13.19
2022-10-15T09:54:00.707Z,13.23
2022-10-15T09:56:37.556Z,13.16
2022-10-15T09:59:18.930Z,13.16
2022-10-15T10:02:04.107Z,13.15
2022-10-15T10:04:33.945Z,13.15
2022-10-15T10:07:03.488Z,13.12
2022-10-15T10:09:36.431Z,13.07
2022-10-15T10:12:06.059Z,13.05
2022-10-15T10:14:41.341Z,13.12
2022-10-15T10:17:17.153Z,13.17
2022-10-15T10:19:44.705Z,13.30
2022-10-15T10:22:19.484Z,13.25
2022-10-15T10:24:47.037Z,13.26
2022-10-15T10:27:29.572Z,13.13
2022-10-15T10:30:03.544Z,13.07
2022-10-15T10:32:31.828Z,13.01
2022-10-15T10:34:59.969Z,12.98
2022-10-15T10:37:27.218Z,12.94
2022-10-15T10:39:56.522Z,12.90
2022-10-15T10:42:25.972Z,12.92
2022-10-15T10:44:53.389Z,12.97
2022-10-15T10:47:27.670Z,13.00
2022-10-15T10:49:59.031Z,13.00
2022-10-15T10:52:37.272Z,13.07
2022-10-15T10:55:32.980Z,13.03
2022-10-15T10:58:00.030Z,13.11
2022-10-15T11:00:35.750Z,12.97
2022-10-15T11:03:02.309Z,13.01
2022-10-15T11:05:33.950Z,12.90
2022-10-15T11:08:22.120Z,12.98
2022-10-15T11:10:56.771Z,13.01
2022-10-15T11:13:44.332Z,13.13
2022-10-15T11:16:16.767Z,13.12
2022-10-15T11:18:54.348Z,13.12
2022-10-15T11:22:01.705Z,13.16
2022-10-15T11:24:48.491Z,13.16
2022-10-15T11:27:38.431Z,13.30
2022-10-15T11:30:32.056Z,13.36
2022-10-15T11:33:09.287Z,13.37
2022-10-15T11:35:54.226Z,13.28
2022-10-15T11:38:51.937Z,13.28
2022-10-15T11:41:24.297Z,13.44
2022-10-15T11:44:03.887Z,13.47
2022-10-15T11:46:50.986Z,13.51
2022-10-15T11:49:29.474Z,13.67
2022-10-15T11:52:17.962Z,13.72
2022-10-15T11:55:13.392Z,13.77
2022-10-15T11:57:40.667Z,13.78
2022-10-15T12:00:19.942Z,13.80
2022-10-15T12:02:47.112Z,13.85
2022-10-15T12:05:35.289Z,13.89
2022-10-15T12:10:51.916Z,14.03
2022-10-15T12:13:39.645Z,14.02
2022-10-15T12:16:16.120Z,14.19
2022-10-15T12:18:52.183Z,14.16
2022-10-15T12:21:40.002Z,14.24
2022-10-15T12:24:39.524Z,14.29
2022-10-15T12:27:35.997Z,14.33
2022-10-15T12:30:02.774Z,14.38
2022-10-15T12:32:37.325Z,14.47
2022-10-15T12:35:19.831Z,14.57
2022-10-15T12:37:48.093Z,14.67
2022-10-15T12:40:23.444Z,15.01
2022-10-15T12:42:51.233Z,15.10
2022-10-15T12:45:29.526Z,15.21
2022-10-15T12:48:15.512Z,15.07
2022-10-15T12:50:42.537Z,15.03
2022-10-15T12:53:32.559Z,14.91
2022-10-15T12:56:08.422Z,14.81
2022-10-15T12:58:36.038Z,14.76
2022-10-15T13:01:15.590Z,14.70
2022-10-15T13:03:51.146Z,14.67
2022-10-15T13:06:20.355Z,14.59
2022-10-15T13:08:54.333Z,14.62
2022-10-15T13:11:44.235Z,14.70
2022-10-15T13:14:28.990Z,14.75
2022-10-15T13:16:55.927Z,14.86
2022-10-15T13:19:26.694Z,14.89
2022-10-15T13:21:55.887Z,14.81
2022-10-15T13:24:32.715Z,14.74
2022-10-15T13:27:00.548Z,14.76
2022-10-15T13:29:27.830Z,14.77
2022-10-15T13:31:56.314Z,14.80
2022-10-15T13:34:30.503Z,14.78
2022-10-15T13:36:59.215Z,14.75
2022-10-15T13:39:31.496Z,14.70
2022-10-15T13:42:13.034Z,14.69
2022-10-15T13:44:39.762Z,14.83
2022-10-15T13:47:34.155Z,14.88
2022-10-15T13:50:27.579Z,15.05
2022-10-15T13:53:09.285Z,15.07
2022-10-15T13:55:43.691Z,15.08
2022-10-15T13:58:21.258Z,14.99
2022-10-15T14:01:03.785Z,14.91
2022-10-15T14:03:35.826Z,14.88
2022-10-15T14:06:14.915Z,14.89
2022-10-15T14:08:41.534Z,14.90
2022-10-15T14:11:12.067Z,14.88
2022-10-15T14:13:49.435Z,14.82
2022-10-15T14:16:21.781Z,14.81
2022-10-15T14:18:53.919Z,14.78
2022-10-15T14:21:32.572Z,14.76
2022-10-15T14:24:21.474Z,14.73
2022-10-15T14:26:48.293Z,14.71
2022-10-15T14:29:27.539Z,14.70
2022-10-15T14:31:56.222Z,14.71
2022-10-15T14:34:38.883Z,14.66
2022-10-15T14:37:29.594Z,14.66
2022-10-15T14:40:11.058Z,14.70
2022-10-15T14:42:48.534Z,14.70
2022-10-15T14:45:18.053Z,14.69
2022-10-15T14:47:46.829Z,14.72
2022-10-15T14:50:13.331Z,14.69
2022-10-15T14:52:44.851Z,14.70
2022-10-15T14:55:23.914Z,14.74
2022-10-15T14:57:51.205Z,14.82
2022-10-15T15:00:32.529Z,14.80
2022-10-15T15:03:01.606Z,14.73
2022-10-15T15:05:28.965Z,14.70
2022-10-15T15:07:57.116Z,14.58
2022-10-15T15:10:27.363Z,14.52
2022-10-15T15:12:57.139Z,14.50
2022-10-15T15:15:25.526Z,14.49
2022-10-15T15:17:52.038Z,14.51
2022-10-15T15:20:22.479Z,14.50
2022-10-15T15:22:50.932Z,14.51
2022-10-15T15:25:18.410Z,14.52
2022-10-15T15:27:44.867Z,14.49
2022-10-15T15:30:18.136Z,14.47
2022-10-15T15:32:45.349Z,14.46
2022-10-15T15:35:20.090Z,14.48
2022-10-15T15:37:46.540Z,14.49
2022-10-15T15:40:13.038Z,14.42
2022-10-15T15:42:39.845Z,14.42
2022-10-15T15:45:06.856Z,14.41
2022-10-15T15:47:38.255Z,14.39
2022-10-15T15:50:05.043Z,14.40
2022-10-15T15:52:34.004Z,14.33
2022-10-15T15:55:03.214Z,14.30
2022-10-15T15:57:29.675Z,14.24
2022-10-15T15:59:56.382Z,14.18
2022-10-15T16:02:22.906Z,14.13
2022-10-15T16:04:49.422Z,14.08
2022-10-15T16:07:19.001Z,14.01
2022-10-15T16:09:46.145Z,14.09
2022-10-15T16:12:19.112Z,14.06
2022-10-15T16:14:45.865Z,14.02
2022-10-15T16:17:12.356Z,14.02
2022-10-15T16:19:38.845Z,14.01
2022-10-15T16:22:05.308Z,14.00
2022-10-15T16:24:32.657Z,13.96
2022-10-15T16:26:59.375Z,13.98
2022-10-15T16:29:25.838Z,14.00
2022-10-15T16:31:52.289Z,13.99
2022-10-15T16:34:18.769Z,13.96
2022-10-15T16:36:53.432Z,13.99
2022-10-15T16:39:19.919Z,14.01
2022-10-15T16:41:46.399Z,13.99
2022-10-15T16:44:13.068Z,13.95
2022-10-15T16:46:39.565Z,13.97
2022-10-15T16:49:06.042Z,13.98
2022-10-15T16:51:37.432Z,14.07
2022-10-15T16:54:06.434Z,13.90
2022-10-15T16:56:34.374Z,13.89
2022-10-15T16:59:00.892Z,13.90
2022-10-15T17:01:29.249Z,13.84
2022-10-15T17:03:55.859Z,13.89
2022-10-15T17:06:25.551Z,13.88
2022-10-15T17:08:57.162Z,13.83
2022-10-15T17:11:26.112Z,13.81
2022-10-15T17:13:54.678Z,13.75
2022-10-15T17:16:24.876Z,13.75
2022-10-15T17:21:22.046Z,13.63
2022-10-15T17:23:50.286Z,13.63
2022-10-15T17:26:18.820Z,13.61
2022-10-15T17:28:46.820Z,13.58
2022-10-15T17:31:17.036Z,13.55
2022-10-15T17:33:44.743Z,13.58
2022-10-15T17:36:18.501Z,13.54
2022-10-15T17:38:48.820Z,13.58
2022-10-15T17:41:18.911Z,13.58
2022-10-15T17:43:45.840Z,13.59
2022-10-15T17:46:17.587Z,13.56
2022-10-15T17:48:44.578Z,13.57
2022-10-15T17:51:14.305Z,13.58
2022-10-15T17:53:41.300Z,13.53
2022-10-15T17:56:17.916Z,13.56
2022-10-15T17:58:44.759Z,13.49
2022-10-15T18:01:27.983Z,13.48
2022-10-15T18:04:05.297Z,13.46
2022-10-15T18:06:32.241Z,13.43
2022-10-15T18:09:00.151Z,13.38
2022-10-15T18:11:32.595Z,13.34
2022-10-15T18:13:59.124Z,13.35
2022-10-15T18:16:26.095Z,13.33
2022-10-15T18:18:53.614Z,13.32
2022-10-15T18:21:21.647Z,13.37
2022-10-15T18:23:48.194Z,13.37
2022-10-15T18:26:19.552Z,13.34
2022-10-15T18:28:48.639Z,13.31
2022-10-15T18:31:15.487Z,13.33
2022-10-15T18:33:43.926Z,13.30
2022-10-15T18:36:12.424Z,13.30
2022-10-15T18:38:40.697Z,13.32
2022-10-15T18:41:23.739Z,13.34
2022-10-15T18:43:55.741Z,13.39
2022-10-15T18:46:22.607Z,13.44
2022-10-15T18:48:49.795Z,13.43
2022-10-15T18:51:17.266Z,13.44
2022-10-15T18:53:43.951Z,13.47
2022-10-15T18:56:14.848Z,13.44
2022-10-15T18:58:44.675Z,13.43
2022-10-15T19:01:24.720Z,13.40
2022-10-15T19:04:00.284Z,13.48
2022-10-15T19:06:30.571Z,13.52
2022-10-15T19:08:58.050Z,13.54
2022-10-15T19:11:27.853Z,13.55
2022-10-15T19:13:56.762Z,13.54
2022-10-15T19:16:24.594Z,13.53
2022-10-15T19:18:52.010Z,13.56
2022-10-15T19:21:19.910Z,13.58
2022-10-15T19:23:49.447Z,13.55
2022-10-15T19:26:16.323Z,13.55
2022-10-15T19:28:42.838Z,13.60
2022-10-15T19:31:12.416Z,13.61
2022-10-15T19:33:40.214Z,13.57
2022-10-15T19:36:06.835Z,13.55
2022-10-15T19:38:34.006Z,13.52
2022-10-15T19:41:06.467Z,13.54
2022-10-15T19:43:33.359Z,13.54
2022-10-15T19:46:03.976Z,13.53
2022-10-15T19:48:30.847Z,13.51
2022-10-15T19:51:00.930Z,13.46
2022-10-15T19:53:27.375Z,13.50
2022-10-15T19:55:59.458Z,13.46
2022-10-15T19:58:26.498Z,13.45
2022-10-15T20:00:53.708Z,13.43
2022-10-15T20:03:25.558Z,13.35
2022-10-15T20:05:54.275Z,13.36
2022-10-15T20:08:21.042Z,13.30
2022-10-15T20:10:51.487Z,13.26
2022-10-15T20:13:21.847Z,13.17
2022-10-15T20:15:51.123Z,13.17
2022-10-15T20:18:18.519Z,13.23
2022-10-15T20:20:46.000Z,13.15
2022-10-15T20:23:16.550Z,13.06
2022-10-15T20:25:44.149Z,13.06
2022-10-15T20:28:12.431Z,12.99
2022-10-15T20:30:39.912Z,12.99
2022-10-15T20:33:07.245Z,12.96
2022-10-15T20:35:37.553Z,12.88
2022-10-15T20:38:04.884Z,12.83
2022-10-15T20:40:31.883Z,12.81
2022-10-15T20:42:58.844Z,12.79
2022-10-15T20:45:31.421Z,12.73
2022-10-15T20:47:58.141Z,12.72
2022-10-15T20:50:28.482Z,12.66
2022-10-15T20:52:56.543Z,12.68
2022-10-15T20:55:24.408Z,12.62
2022-10-15T20:57:51.296Z,12.61
2022-10-15T21:00:19.187Z,12.60
2022-10-15T21:02:45.923Z,12.59
2022-10-15T21:05:12.484Z,12.59
2022-10-15T21:07:39.100Z,12.61
2022-10-15T21:10:06.126Z,12.63
2022-10-15T21:12:32.658Z,12.62
2022-10-15T21:14:59.539Z,12.65
2022-10-15T21:17:26.274Z,12.68
2022-10-15T21:19:53.121Z,12.67
2022-10-15T21:22:19.741Z,12.67
2022-10-15T21:24:46.321Z,12.66
2022-10-15T21:27:14.381Z,12.62
2022-10-15T21:29:42.730Z,12.68
2022-10-15T21:32:09.329Z,12.79
2022-10-15T21:34:35.879Z,12.83
2022-10-15T21:37:02.842Z,12.78
2022-10-15T21:39:30.375Z,12.79
2022-10-15T21:41:57.857Z,12.77
2022-10-15T21:44:24.388Z,12.72
2022-10-15T21:46:51.052Z,12.73
2022-10-15T21:49:17.879Z,12.64
2022-10-15T21:51:45.019Z,12.72
2022-10-15T21:54:11.615Z,12.68
2022-10-15T21:56:39.169Z,12.70
2022-10-15T21:59:06.010Z,12.74
2022-10-15T22:01:34.817Z,12.70
2022-10-15T22:04:06.720Z,12.71
2022-10-15T22:06:34.141Z,12.68
2022-10-15T22:09:02.250Z,12.69
2022-10-15T22:11:31.488Z,12.72
2022-10-15T22:14:00.662Z,12.71
2022-10-15T22:16:28.122Z,12.64
2022-10-15T22:18:55.436Z,12.64
2022-10-15T22:21:27.716Z,12.60
2022-10-15T22:23:59.779Z,12.59
2022-10-15T22:26:32.287Z,12.51
2022-10-15T22:29:00.902Z,12.57
2022-10-15T22:31:29.064Z,12.53
2022-10-15T22:33:55.730Z,12.56
2022-10-15T22:36:24.673Z,12.61
2022-10-15T22:39:01.464Z,12.61
2022-10-15T22:41:29.433Z,12.48
2022-10-15T22:43:56.032Z,12.46
2022-10-15T22:46:22.495Z,12.48
2022-10-15T22:48:49.388Z,12.55
2022-10-15T22:51:16.432Z,12.43
2022-10-15T22:53:42.954Z,12.39
2022-10-15T22:56:15.075Z,12.44
2022-10-15T22:58:42.057Z,12.32
2022-10-15T23:01:09.758Z,12.34
2022-10-15T23:03:36.726Z,12.31
2022-10-15T23:06:03.637Z,12.34
2022-10-15T23:08:31.170Z,12.37
2022-10-15T23:11:11.717Z,12.35
2022-10-15T23:13:38.890Z,12.36
2022-10-15T23:16:11.419Z,12.26
2022-10-15T23:18:38.193Z,12.20
2022-10-15T23:21:06.485Z,12.21
2022-10-15T23:23:32.943Z,12.23
2022-10-15T23:25:59.428Z,12.13
2022-10-15T23:28:25.963Z,12.06
2022-10-15T23:30:52.467Z,12.00
2022-10-15T23:33:18.978Z,12.06
2022-10-15T23:35:45.464Z,12.03
2022-10-15T23:38:13.816Z,12.05
2022-10-15T23:40:40.259Z,12.06
2022-10-15T23:43:06.995Z,12.07
2022-10-15T23:45:35.712Z,12.05
2022-10-15T23:48:04.668Z,12.04
2022-10-15T23:50:35.302Z,11.99
2022-10-15T23:53:01.835Z,12.07
2022-10-15T23:55:28.578Z,12.05
2022-10-15T23:57:55.035Z,12.09
